Saint Paul, Canada
Current Conditions -  °F | °C
As of 8:00 PM on Friday 24 Oct 2014 (Local Time) from CYOD Reporting Station
Few Clouds Few Clouds  
Wind Chill: 37°   Ceiling: Unl
Heat Index: 41°   Visibility: 15mi
Dew Point: 25°   Wind: 6mph
Humidity: 53%   Direction: 260°W
Pressure: 29.86"   Gusts: NA
Location:  53.98°N, 111.28°W
Report Text: CYOD 250200Z 26005KT 15SM FEW060 05/M04 A2986 RMK SC2 SLP134
Loading
Personal Weather Stations






























Interactive Weather Map
Tropical Storm Tracking
New forecast layout! Learn more

10-Day Weather Forecast

Advertisements
Track Severe Weather on mobile